Chicago, IL (60640)

4:28 PM CDT on August 30, 2014 (GMT -0500)
Lincoln Square | Change Station
CLOSE
Current Station
Personal Weather Station
Location: CHICAGO, IL
Elevation: 607 ft
Nearby Weather Stations

Elev 607 ft 41.96 °N, 87.68 °W | Updated 59 seconds ago

Mostly Cloudy
Mostly Cloudy
86.5 °F
Feels Like 89 °F
N
4.0
Wind Variable Wind from West
Gusts 10.0 mph

Today
High -- | Low -- °F
--% Chance of Precip.
Yesterday
High -- | Low -- °F
Precip. -- in
6:14 AM 7:27 PM
Waxing Crescent, 24% visible
Pressure 29.82 in
Visibility 10.0 miles
Clouds Scattered Clouds 4000 ft
Mostly Cloudy 5000 ft
Mostly Cloudy 25000 ft
Heat Index 89 °F
Dew Point 66 °F
Humidity 50%
Rainfall 0.00 in
Snow Depth Not available.
UV 3 out of 12
Pollen 4.70 out of 12
Ozone Good
PM2.5 Moderate
Flu Activity Not available.
METAR KORD 302051Z 24017G24KT 10SM SCT040 BKN050 BKN250 28/18 A2983 RMK AO2 SLP097 T02780178 58005

More Conditions Fewer Conditions

Pressure 29.82 in
Visibility 10.0 miles
Clouds Scattered Clouds 4000 ft
Mostly Cloudy 5000 ft
Mostly Cloudy 25000 ft
Heat Index 89 °F
Dew Point 66 °F
Humidity 50%
Rainfall 0.00 in
Snow Depth Not available.
UV 3 out of 12
Pollen 4.70 out of 12
Ozone Good
PM2.5 Moderate
Flu Activity Not available.
METAR KORD 302051Z 24017G24KT 10SM SCT040 BKN050 BKN250 28/18 A2983 RMK AO2 SLP097 T02780178 58005

More Conditions Fewer Conditions

10-Day Weather Forecast

Almanac

Astronomy

Aug. 30, 2014 Rise Set
Actual Time 6:14 AM CDT 7:27 PM CDT
Civil Twilight 5:45 AM CDT 7:56 PM CDT
Nautical Twilight 5:10 AM CDT 8:30 PM CDT
Astronomical Twilight 4:34 AM CDT 9:06 PM CDT
Moon 11:06 AM CDT 9:56 PM CDT
Length of Visible Light 14h 10m
Length of Day
13h 13m
Tomorrow will be 2m 41s shorter.
Waxing Crescent, 24% of the Moon is Illuminated
Today
Waxing Crescent
Sep 2
First Quarter
Sep 8
Full
Sep 15
Last Quarter
Sep 24
New

Today's Extremes

State Highs State Lows

Community

WunderPhotos

Upload Photos

1,748,635 photos uploaded!

WunderBlogs® & News

Nearby

Air Quality

  Air Quality AQ Index Pollutant
Yesterday Moderate
PM2.5
Yesterday Good
OZONE
Current Moderate
PM2.5
Current Good
OZONE
Saturday Moderate
PM2.5
Saturday Good
OZONE
Sunday Moderate
OZONE
Sunday Good
PM2.5
Monday Moderate
PM2.5
Monday Good
OZONE
Tuesday Good
OZONE
Tuesday Good
PM2.5

Snow Depth

Station Depth Elevation
No new snow has been reported.

Earthquake Activity

City Distance Mag. Time & Date
No recent earthquake activity has been reported nearby.
Minimum magnitude displayed is 2.5.

Coastal Water Temperatures

Place Temperature
No Stations Reporting

Nearby Weather Stations